Observations for CHICAGO MIDWAY, IL (MDW)

KMDW 142353Z 31006KT 10SM FEW040 SCT200 M05/M13 A3008 RMK AO2 SLP201 T10501128 11011 21050 53010
KMDW 142253Z 32007KT 10SM FEW040 BKN200 M04/M12 A3006 RMK AO2 SLP196 T10391122  
KMDW 142153Z 29004KT 10SM FEW040 BKN200 M03/M12 A3006 RMK AO2 SLP193 T10281122  
KMDW 142053Z 29004KT 10SM FEW040 BKN200 M02/M12 A3005 RMK AO2 SLP189 T10221117 55004
KMDW 141953Z 27008KT 10SM FEW040 BKN250 M02/M13 A3004 RMK AO2 SLP188 T10221128  
KMDW 141853Z 31006KT 10SM FEW048 BKN250 M02/M10 A3004 RMK AO2 SLP187 T10221100  
KMDW 141753Z 29005KT 10SM FEW048 BKN250 M03/M10 A3006 RMK AO2 SLP193 T10331100 11028 21078 58001
KMDW 141653Z 35005KT 10SM FEW048 BKN250 M04/M11 A3007 RMK AO2 SLP198 T10391106  
KMDW 141453Z 34010KT 10SM FEW048 BKN250 M07/M11 A3006 RMK AO2 SLP195 T10671111 53026
KMDW 141353Z 33010KT 10SM FEW048 BKN250 M08/M12 A3003 RMK AO2 SLP184 T10781117  
KMDW 141253Z 32010KT 10SM SCT046 SCT250 M08/M12 A3001 RMK AO2 SLP176 T10781117  
KMDW 141153Z 34011KT 10SM BKN046 M07/M11 A2998 RMK AO2 SNE49 SLP167 P0000 60000 T10671111 11017 21067 53029 
KMDW 141053Z 33010KT 10SM -SN FEW028 OVC047 M06/M11 A2995 RMK AO2 SNB13 SLP157 VIS NE-E 7 P0000 T10611106   
KMDW 140953Z 33013KT 10SM BKN043 M06/M11 A2993 RMK AO2 SLP147 T10611106 
KMDW 140853Z 33010KT 10SM FEW021 FEW049 M05/M09 A2990 RMK AO2 SNE44 SLP136 P0000 60000 T10501089 51038  
KMDW 140813Z 34013KT 10SM -SN SCT021 OVC049 M03/M08 A2989 RMK AO2 P0000 T10331078
KMDW 140753Z 34013KT 10SM -SN BKN020 OVC048 M03/M07 A2987 RMK AO2 SLP126 P0000 T10331067
KMDW 140653Z 34012KT 8SM -SN SCT019 BKN025 OVC031 M02/M06 A2982 RMK AO2 SLP109 P0000 T10221056  
KMDW 140553Z 34010KT 10SM -SN SCT023 BKN028 OVC033 M02/M06 A2978 RMK AO2 SLP097 P0000 60000 T10171061 10006 21017 400331056 51052   
KMDW 140453Z 36015KT 9SM -SN BKN024 OVC028 M01/M06 A2974 RMK AO2 PK WND 32027/0355 SLP080 P0000 T10111061   
KMDW 140353Z 34016G26KT 10SM -SN OVC024 M01/M06 A2968 RMK AO2 PK WND 32026/0348 SLP064 P0000 T10111056  
KMDW 140253Z 32018KT 9SM -SN BKN022 BKN027 OVC040 M02/M06 A2963 RMK AO2 PK WND 32029/0157 PRESRR SLP045 P0000 60000 T10171061 51061 
KMDW 140153Z 31024G33KT 9SM -SN BKN027 OVC040 M02/M07 A2957 RMK AO2 PK WND 31033/0145 SNB27 SLP026 P0000 T10171072  
KMDW 140053Z 31023G30KT 10SM OVC027 M01/M07 A2952 RMK AO2 PK WND 30030/0052 PRESRR SLP007 T10111067 
KMDW 132353Z 32019G36KT 10SM BKN027 OVC038 01/M06 A2945 RMK AO2 PK WND 33036/2349 SNE46 PRESRR SLP982 P0000 60000 T00061056 10033 20006 53051